Strona główna
METAR-TAF:

METAR-TAF

Lotnisko :

Port lotniczy Bruksela

Bruksela, Belgia

Szerokość geograficzna: 50-54N, Długość geograficzna: 004-32E, wysokość: 55 m

Aktualna obserwacja pogody

Raport powstał 30 minut temu, godzina 05:20 UTC
Wiatr 5 kt od północny wschód
Temperatura 10°C
Wilgotność 76%
Ciśnienie 1034 hPa
Widzialność 10 km lub więcej
Brak chmur poniżej 1500 m i brak chmur cumulonimbus

METAR: EBBR 280520Z 05005KT CAVOK 10/06 Q1034 NOSIG

czas: 07:50 (05:50 UTC)

Prognoza

Raport powstał 50 minut temu, godzina 05:00 UTC
Prognoza ważna od 28 godzina 06 UTC do 29 godzina 12 UTC
Wiatr 10 kt od północny wschód
Widzialność 10 km lub więcej
Brak chmur poniżej 1500 m i brak chmur cumulonimbus

TAF: EBBR 280500Z 2806/2912 05010KT CAVOK

Obserwacja i prognoza pogody dla ponad 4000 lotnisk (raport METAR i TAF).

Dostępne stacje oznaczono żółtymi i czerwonymi punktami na mapie.

Najedź kursorem aby zobaczyć nazwę stacji.

Kliknij aby zobaczyć obserwacje i prognozy pogody.

Aby zmienić mapę: kliknij na zielony przycisk z czarnym krzyżykiem, aby powiększyć; na zielony przycisk z myślnikiem, aby pomniejszyć; na zielone strzałki, aby przejść do map sąsiednich.


METAR-TAF: